Aqaba Port, Jordan

10:48 AM EEST on September 19, 2014 (GMT +0300)
TalaBay Marina | Change Station
CLOSE
Current Station
Personal Weather Station
Location: Aqaba, AQABA
Elevation: 36 ft
Nearby Weather Stations

Elev 36 ft 29.41 °N, 34.98 °E | Updated 10 minutes ago

Clear
Clear
84.1 °F
Feels Like 85 °F
N
11.0
Wind Variable Wind from ENE

Today
High -- | Low -- °F
--% Chance of Precip.
Yesterday
High -- | Low -- °F
Precip. -- in
6:26 AM 6:40 PM
Waning Crescent, 21% visible
Pressure 29.92 in
Visibility -9999.0 miles
Clouds
Heat Index 85 °F
Dew Point 62 °F
Humidity 48%
Rainfall 0.00 in
Snow Depth Not available.
UV 2.1 out of 12
Pollen Not available.
Air Quality Not available.
Flu Activity Not available.
METAR OJAQ 190700Z 36015KT CAVOK 28/16 Q1013 NOSIG

More Conditions Fewer Conditions

Pressure 29.92 in
Visibility -9999.0 miles
Clouds
Heat Index 85 °F
Dew Point 62 °F
Humidity 48%
Rainfall 0.00 in
Snow Depth Not available.
UV 2.1 out of 12
Pollen Not available.
Air Quality Not available.
Flu Activity Not available.
METAR OJAQ 190700Z 36015KT CAVOK 28/16 Q1013 NOSIG

More Conditions Fewer Conditions

10-Day Weather Forecast

Almanac

Astronomy

Sep. 19, 2014 Rise Set
Actual Time 6:26 AM EEST 6:40 PM EEST
Civil Twilight 6:02 AM EEST 7:04 PM EEST
Nautical Twilight 5:35 AM EEST 7:32 PM EEST
Astronomical Twilight 5:07 AM EEST 8:00 PM EEST
Moon 2:09 AM EEST 3:42 PM EEST
Length of Visible Light 13h 01m
Length of Day
12h 14m
Tomorrow will be 1m 45s shorter.
Waning Crescent, 21% of the Moon is Illuminated
Today
Waning Crescent
Sep 24
New
Oct 1
First Quarter
Oct 8
Full
Oct 15
Last Quarter

Yesterday's Extremes

Country Highs Country Lows

Community

WunderPhotos

Upload Photos

1,754,578 photos uploaded!

Nearby

Snow Depth

Not available.

Earthquake Activity

City Distance Mag. Time & Date
No recent earthquake activity has been reported nearby.
Minimum magnitude displayed is 2.5.

Coastal Water Temperatures

Place Temperature
No Stations Reporting

Nearby Weather Stations